sensor_id;sensor_type;location;lat;lon;timestamp;temperature;humidity
1812;DHT22;904;47.814;11.134;2023-03-23T00:01:13;10.80;59.20
1812;DHT22;904;47.814;11.134;2023-03-23T00:03:50;10.80;59.40
1812;DHT22;904;47.814;11.134;2023-03-23T00:06:21;10.80;60.40
1812;DHT22;904;47.814;11.134;2023-03-23T00:08:50;10.70;59.80
1812;DHT22;904;47.814;11.134;2023-03-23T00:11:24;10.80;60.00
1812;DHT22;904;47.814;11.134;2023-03-23T00:13:57;10.80;59.90
1812;DHT22;904;47.814;11.134;2023-03-23T00:16:30;10.80;60.30
1812;DHT22;904;47.814;11.134;2023-03-23T00:18:59;10.80;60.20
1812;DHT22;904;47.814;11.134;2023-03-23T00:21:30;10.80;60.30
1812;DHT22;904;47.814;11.134;2023-03-23T00:24:02;10.80;60.30
1812;DHT22;904;47.814;11.134;2023-03-23T00:26:31;10.90;59.70
1812;DHT22;904;47.814;11.134;2023-03-23T00:29:03;10.80;59.70
1812;DHT22;904;47.814;11.134;2023-03-23T00:31:33;10.80;59.80
1812;DHT22;904;47.814;11.134;2023-03-23T00:34:02;10.70;60.00
1812;DHT22;904;47.814;11.134;2023-03-23T00:36:30;10.70;60.10
1812;DHT22;904;47.814;11.134;2023-03-23T00:39:00;10.70;60.30
1812;DHT22;904;47.814;11.134;2023-03-23T00:41:29;10.70;60.80
1812;DHT22;904;47.814;11.134;2023-03-23T00:43:59;10.70;60.80
1812;DHT22;904;47.814;11.134;2023-03-23T00:46:29;10.70;61.40
1812;DHT22;904;47.814;11.134;2023-03-23T00:48:56;10.70;61.40
1812;DHT22;904;47.814;11.134;2023-03-23T00:51:25;10.80;61.50
1812;DHT22;904;47.814;11.134;2023-03-23T00:53:54;10.80;61.50
1812;DHT22;904;47.814;11.134;2023-03-23T00:56:21;10.80;61.60
1812;DHT22;904;47.814;11.134;2023-03-23T00:58:50;10.80;61.70
1812;DHT22;904;47.814;11.134;2023-03-23T01:01:17;10.80;61.80
1812;DHT22;904;47.814;11.134;2023-03-23T01:03:46;10.80;61.60
1812;DHT22;904;47.814;11.134;2023-03-23T01:06:13;10.70;61.50
1812;DHT22;904;47.814;11.134;2023-03-23T01:08:41;10.70;61.70
1812;DHT22;904;47.814;11.134;2023-03-23T01:11:13;10.60;62.40
1812;DHT22;904;47.814;11.134;2023-03-23T01:13:41;10.60;63.10
1812;DHT22;904;47.814;11.134;2023-03-23T01:16:10;10.60;63.40
1812;DHT22;904;47.814;11.134;2023-03-23T01:18:38;10.50;63.50
1812;DHT22;904;47.814;11.134;2023-03-23T01:21:08;10.50;63.40
1812;DHT22;904;47.814;11.134;2023-03-23T01:23:36;10.50;63.20
1812;DHT22;904;47.814;11.134;2023-03-23T01:26:05;10.50;63.20
1812;DHT22;904;47.814;11.134;2023-03-23T01:28:33;10.40;63.20
1812;DHT22;904;47.814;11.134;2023-03-23T01:31:01;10.40;63.40
1812;DHT22;904;47.814;11.134;2023-03-23T01:33:29;10.40;63.70
1812;DHT22;904;47.814;11.134;2023-03-23T01:35:57;10.30;63.90
1812;DHT22;904;47.814;11.134;2023-03-23T01:38:31;10.20;63.70
1812;DHT22;904;47.814;11.134;2023-03-23T01:41:04;10.10;64.00
1812;DHT22;904;47.814;11.134;2023-03-23T01:43:31;10.10;64.10
1812;DHT22;904;47.814;11.134;2023-03-23T01:45:58;10.00;63.90
1812;DHT22;904;47.814;11.134;2023-03-23T01:48:27;9.90;65.50
1812;DHT22;904;47.814;11.134;2023-03-23T01:50:59;9.80;65.60
1812;DHT22;904;47.814;11.134;2023-03-23T01:53:35;9.70;66.20
1812;DHT22;904;47.814;11.134;2023-03-23T01:56:04;9.60;67.50
1812;DHT22;904;47.814;11.134;2023-03-23T01:58:34;9.60;68.30
1812;DHT22;904;47.814;11.134;2023-03-23T02:01:06;9.50;68.70
1812;DHT22;904;47.814;11.134;2023-03-23T02:03:36;9.50;69.40
1812;DHT22;904;47.814;11.134;2023-03-23T02:06:04;9.50;69.50
1812;DHT22;904;47.814;11.134;2023-03-23T02:08:34;9.50;69.60
1812;DHT22;904;47.814;11.134;2023-03-23T02:11:11;9.50;70.00
1812;DHT22;904;47.814;11.134;2023-03-23T02:13:39;9.50;70.10
1812;DHT22;904;47.814;11.134;2023-03-23T02:16:14;9.50;70.10
1812;DHT22;904;47.814;11.134;2023-03-23T02:18:53;9.50;70.00
1812;DHT22;904;47.814;11.134;2023-03-23T02:21:47;9.50;70.30
1812;DHT22;904;47.814;11.134;2023-03-23T02:24:50;9.60;70.50
1812;DHT22;904;47.814;11.134;2023-03-23T02:30:39;9.60;70.60
1812;DHT22;904;47.814;11.134;2023-03-23T02:33:30;9.70;70.20
1812;DHT22;904;47.814;11.134;2023-03-23T02:36:05;9.60;70.70
1812;DHT22;904;47.814;11.134;2023-03-23T02:38:38;9.50;71.20
1812;DHT22;904;47.814;11.134;2023-03-23T02:41:09;9.50;71.10
1812;DHT22;904;47.814;11.134;2023-03-23T02:43:43;9.50;70.90
1812;DHT22;904;47.814;11.134;2023-03-23T02:46:14;9.40;70.90
1812;DHT22;904;47.814;11.134;2023-03-23T02:48:45;9.20;71.70
1812;DHT22;904;47.814;11.134;2023-03-23T02:51:15;9.20;72.20
1812;DHT22;904;47.814;11.134;2023-03-23T02:53:43;9.20;72.30
1812;DHT22;904;47.814;11.134;2023-03-23T02:56:12;9.10;72.80
1812;DHT22;904;47.814;11.134;2023-03-23T02:58:40;9.10;73.60
1812;DHT22;904;47.814;11.134;2023-03-23T03:04:03;9.10;73.90
1812;DHT22;904;47.814;11.134;2023-03-23T03:06:36;9.10;74.40
1812;DHT22;904;47.814;11.134;2023-03-23T03:09:13;9.10;75.20
1812;DHT22;904;47.814;11.134;2023-03-23T03:11:45;9.10;75.30
1812;DHT22;904;47.814;11.134;2023-03-23T03:14:20;9.10;75.20
1812;DHT22;904;47.814;11.134;2023-03-23T03:16:53;9.10;74.40
1812;DHT22;904;47.814;11.134;2023-03-23T03:19:27;9.10;74.30
1812;DHT22;904;47.814;11.134;2023-03-23T03:21:58;9.00;74.20
1812;DHT22;904;47.814;11.134;2023-03-23T03:24:28;9.00;74.90
1812;DHT22;904;47.814;11.134;2023-03-23T03:26:58;9.00;75.70
1812;DHT22;904;47.814;11.134;2023-03-23T03:29:29;8.90;76.20
1812;DHT22;904;47.814;11.134;2023-03-23T03:31:59;8.90;77.00
1812;DHT22;904;47.814;11.134;2023-03-23T03:34:29;8.90;77.60
1812;DHT22;904;47.814;11.134;2023-03-23T03:36:59;8.80;77.70
1812;DHT22;904;47.814;11.134;2023-03-23T03:39:27;8.80;77.90
1812;DHT22;904;47.814;11.134;2023-03-23T03:41:55;8.80;78.30
1812;DHT22;904;47.814;11.134;2023-03-23T03:44:22;8.80;78.80
1812;DHT22;904;47.814;11.134;2023-03-23T03:46:49;8.70;79.40
1812;DHT22;904;47.814;11.134;2023-03-23T03:49:16;8.70;79.30
1812;DHT22;904;47.814;11.134;2023-03-23T03:51:45;8.70;79.30
1812;DHT22;904;47.814;11.134;2023-03-23T03:54:12;8.70;78.50
1812;DHT22;904;47.814;11.134;2023-03-23T03:56:39;8.60;78.80
1812;DHT22;904;47.814;11.134;2023-03-23T03:59:07;8.50;78.70
1812;DHT22;904;47.814;11.134;2023-03-23T04:01:36;8.50;78.90
1812;DHT22;904;47.814;11.134;2023-03-23T04:04:03;8.60;79.60
1812;DHT22;904;47.814;11.134;2023-03-23T04:06:32;8.60;79.90
1812;DHT22;904;47.814;11.134;2023-03-23T04:09:04;8.60;79.80
1812;DHT22;904;47.814;11.134;2023-03-23T04:11:33;8.60;79.50
1812;DHT22;904;47.814;11.134;2023-03-23T04:14:04;8.70;79.40
1812;DHT22;904;47.814;11.134;2023-03-23T04:16:32;8.70;79.20
1812;DHT22;904;47.814;11.134;2023-03-23T04:19:01;8.60;79.30
1812;DHT22;904;47.814;11.134;2023-03-23T04:21:29;8.70;78.90
1812;DHT22;904;47.814;11.134;2023-03-23T04:23:56;8.70;78.60
1812;DHT22;904;47.814;11.134;2023-03-23T04:26:27;8.70;79.10
1812;DHT22;904;47.814;11.134;2023-03-23T04:28:55;8.70;78.40
1812;DHT22;904;47.814;11.134;2023-03-23T04:31:25;8.60;78.70
1812;DHT22;904;47.814;11.134;2023-03-23T04:33:52;8.50;79.40
1812;DHT22;904;47.814;11.134;2023-03-23T04:36:19;8.50;79.40
1812;DHT22;904;47.814;11.134;2023-03-23T04:38:48;8.40;79.20
1812;DHT22;904;47.814;11.134;2023-03-23T04:41:20;8.40;79.50
1812;DHT22;904;47.814;11.134;2023-03-23T04:43:49;8.50;79.80
1812;DHT22;904;47.814;11.134;2023-03-23T04:46:18;8.50;80.10
1812;DHT22;904;47.814;11.134;2023-03-23T04:48:47;8.60;80.50
1812;DHT22;904;47.814;11.134;2023-03-23T04:51:15;8.70;80.50
1812;DHT22;904;47.814;11.134;2023-03-23T04:53:42;8.70;80.50
1812;DHT22;904;47.814;11.134;2023-03-23T04:56:09;8.80;80.40
1812;DHT22;904;47.814;11.134;2023-03-23T04:58:36;8.90;80.20
1812;DHT22;904;47.814;11.134;2023-03-23T05:01:06;8.80;79.30
1812;DHT22;904;47.814;11.134;2023-03-23T05:03:33;8.80;78.90
1812;DHT22;904;47.814;11.134;2023-03-23T05:06:02;8.70;78.60
1812;DHT22;904;47.814;11.134;2023-03-23T05:08:29;8.70;78.70
1812;DHT22;904;47.814;11.134;2023-03-23T05:10:58;8.60;79.10
1812;DHT22;904;47.814;11.134;2023-03-23T05:13:27;8.60;79.30
1812;DHT22;904;47.814;11.134;2023-03-23T05:15:54;8.60;79.60
1812;DHT22;904;47.814;11.134;2023-03-23T05:18:24;8.50;79.80
1812;DHT22;904;47.814;11.134;2023-03-23T05:20:54;8.50;80.40
1812;DHT22;904;47.814;11.134;2023-03-23T05:23:21;8.50;80.50
1812;DHT22;904;47.814;11.134;2023-03-23T05:25:53;8.50;80.50
1812;DHT22;904;47.814;11.134;2023-03-23T05:28:20;8.50;80.70
1812;DHT22;904;47.814;11.134;2023-03-23T05:30:49;8.50;80.60
1812;DHT22;904;47.814;11.134;2023-03-23T05:33:16;8.50;80.20
1812;DHT22;904;47.814;11.134;2023-03-23T05:35:45;8.50;80.10
1812;DHT22;904;47.814;11.134;2023-03-23T05:38:13;8.60;79.90
1812;DHT22;904;47.814;11.134;2023-03-23T05:40:41;8.60;79.40
1812;DHT22;904;47.814;11.134;2023-03-23T05:43:10;8.60;79.60
1812;DHT22;904;47.814;11.134;2023-03-23T05:45:37;8.60;79.60
1812;DHT22;904;47.814;11.134;2023-03-23T05:48:05;8.60;80.00
1812;DHT22;904;47.814;11.134;2023-03-23T05:50:32;8.60;79.90
1812;DHT22;904;47.814;11.134;2023-03-23T05:53:02;8.70;80.10
1812;DHT22;904;47.814;11.134;2023-03-23T05:55:32;8.70;80.40
1812;DHT22;904;47.814;11.134;2023-03-23T05:57:59;8.80;80.80
1812;DHT22;904;47.814;11.134;2023-03-23T06:00:26;8.80;81.10
1812;DHT22;904;47.814;11.134;2023-03-23T06:02:57;8.80;81.10
1812;DHT22;904;47.814;11.134;2023-03-23T06:05:24;8.90;80.90
1812;DHT22;904;47.814;11.134;2023-03-23T06:07:54;8.90;81.00
1812;DHT22;904;47.814;11.134;2023-03-23T06:10:23;9.00;80.90
1812;DHT22;904;47.814;11.134;2023-03-23T06:12:51;9.10;80.50
1812;DHT22;904;47.814;11.134;2023-03-23T06:15:18;9.10;80.40
1812;DHT22;904;47.814;11.134;2023-03-23T06:17:45;9.10;80.20
1812;DHT22;904;47.814;11.134;2023-03-23T06:20:13;9.20;80.00
1812;DHT22;904;47.814;11.134;2023-03-23T06:22:40;9.30;81.00
1812;DHT22;904;47.814;11.134;2023-03-23T06:25:10;9.30;79.50
1812;DHT22;904;47.814;11.134;2023-03-23T06:27:40;9.30;79.60
1812;DHT22;904;47.814;11.134;2023-03-23T06:30:08;9.40;79.40
1812;DHT22;904;47.814;11.134;2023-03-23T06:32:36;9.50;80.20
1812;DHT22;904;47.814;11.134;2023-03-23T06:35:08;9.60;79.60
1812;DHT22;904;47.814;11.134;2023-03-23T06:37:37;9.60;79.40
1812;DHT22;904;47.814;11.134;2023-03-23T06:40:06;9.70;79.20
1812;DHT22;904;47.814;11.134;2023-03-23T06:42:34;9.70;78.80
1812;DHT22;904;47.814;11.134;2023-03-23T06:45:08;9.70;79.00
1812;DHT22;904;47.814;11.134;2023-03-23T06:47:41;9.80;78.90
1812;DHT22;904;47.814;11.134;2023-03-23T06:50:09;9.90;78.80
1812;DHT22;904;47.814;11.134;2023-03-23T06:52:37;10.00;77.40
1812;DHT22;904;47.814;11.134;2023-03-23T06:55:06;10.10;77.80
1812;DHT22;904;47.814;11.134;2023-03-23T06:57:33;10.20;77.80
1812;DHT22;904;47.814;11.134;2023-03-23T07:00:03;10.40;77.90
1812;DHT22;904;47.814;11.134;2023-03-23T07:02:43;10.60;77.60
1812;DHT22;904;47.814;11.134;2023-03-23T07:05:11;10.80;76.60
1812;DHT22;904;47.814;11.134;2023-03-23T07:07:40;11.00;76.30
1812;DHT22;904;47.814;11.134;2023-03-23T07:10:09;11.20;76.80
1812;DHT22;904;47.814;11.134;2023-03-23T07:12:37;11.40;77.00
1812;DHT22;904;47.814;11.134;2023-03-23T07:15:06;11.70;76.90
1812;DHT22;904;47.814;11.134;2023-03-23T07:17:36;11.90;75.90
1812;DHT22;904;47.814;11.134;2023-03-23T07:20:05;12.00;73.90
1812;DHT22;904;47.814;11.134;2023-03-23T07:22:33;12.10;74.10
1812;DHT22;904;47.814;11.134;2023-03-23T07:25:01;12.20;73.10
1812;DHT22;904;47.814;11.134;2023-03-23T07:27:28;12.40;72.60
1812;DHT22;904;47.814;11.134;2023-03-23T07:30:00;12.60;71.50
1812;DHT22;904;47.814;11.134;2023-03-23T07:32:27;12.90;70.70
1812;DHT22;904;47.814;11.134;2023-03-23T07:34:53;13.40;69.50
1812;DHT22;904;47.814;11.134;2023-03-23T07:37:25;14.10;66.20
1812;DHT22;904;47.814;11.134;2023-03-23T07:39:52;14.70;61.00
1812;DHT22;904;47.814;11.134;2023-03-23T07:42:19;14.90;58.40
1812;DHT22;904;47.814;11.134;2023-03-23T07:44:46;14.90;57.50
1812;DHT22;904;47.814;11.134;2023-03-23T07:47:14;15.40;56.60
1812;DHT22;904;47.814;11.134;2023-03-23T07:49:41;15.90;55.10
1812;DHT22;904;47.814;11.134;2023-03-23T07:52:08;16.10;53.60
1812;DHT22;904;47.814;11.134;2023-03-23T07:54:37;16.30;53.60
1812;DHT22;904;47.814;11.134;2023-03-23T07:57:05;16.20;51.90
1812;DHT22;904;47.814;11.134;2023-03-23T07:59:32;16.10;52.70
1812;DHT22;904;47.814;11.134;2023-03-23T08:01:59;16.00;52.90
1812;DHT22;904;47.814;11.134;2023-03-23T08:04:26;15.90;52.20
1812;DHT22;904;47.814;11.134;2023-03-23T08:06:53;15.80;51.50
1812;DHT22;904;47.814;11.134;2023-03-23T08:09:21;15.80;50.70
1812;DHT22;904;47.814;11.134;2023-03-23T08:11:50;16.20;50.90
1812;DHT22;904;47.814;11.134;2023-03-23T08:14:17;16.70;48.50
1812;DHT22;904;47.814;11.134;2023-03-23T08:16:44;16.80;47.80
1812;DHT22;904;47.814;11.134;2023-03-23T08:19:12;16.70;48.60
1812;DHT22;904;47.814;11.134;2023-03-23T08:21:39;16.80;50.90
1812;DHT22;904;47.814;11.134;2023-03-23T08:24:06;16.80;48.30
1812;DHT22;904;47.814;11.134;2023-03-23T08:26:33;16.60;48.90
1812;DHT22;904;47.814;11.134;2023-03-23T08:29:02;16.70;49.50
1812;DHT22;904;47.814;11.134;2023-03-23T08:31:29;16.70;50.20
1812;DHT22;904;47.814;11.134;2023-03-23T08:33:56;16.70;50.40
1812;DHT22;904;47.814;11.134;2023-03-23T08:36:23;16.70;50.50
1812;DHT22;904;47.814;11.134;2023-03-23T08:38:50;16.70;49.90
1812;DHT22;904;47.814;11.134;2023-03-23T08:41:18;16.60;49.20
1812;DHT22;904;47.814;11.134;2023-03-23T08:43:46;16.50;49.50
1812;DHT22;904;47.814;11.134;2023-03-23T08:46:14;16.50;50.30
1812;DHT22;904;47.814;11.134;2023-03-23T08:48:41;16.50;50.50
1812;DHT22;904;47.814;11.134;2023-03-23T08:51:09;16.50;50.70
1812;DHT22;904;47.814;11.134;2023-03-23T08:53:41;16.40;49.90
1812;DHT22;904;47.814;11.134;2023-03-23T08:56:10;16.40;49.20
1812;DHT22;904;47.814;11.134;2023-03-23T08:58:37;16.20;49.40
1812;DHT22;904;47.814;11.134;2023-03-23T09:01:08;16.20;50.20
1812;DHT22;904;47.814;11.134;2023-03-23T09:03:38;16.30;49.90
1812;DHT22;904;47.814;11.134;2023-03-23T09:06:07;16.30;49.60
1812;DHT22;904;47.814;11.134;2023-03-23T09:08:35;16.40;49.30
1812;DHT22;904;47.814;11.134;2023-03-23T09:11:04;16.40;48.20
1812;DHT22;904;47.814;11.134;2023-03-23T09:13:32;16.40;48.10
1812;DHT22;904;47.814;11.134;2023-03-23T09:16:00;16.40;47.70
1812;DHT22;904;47.814;11.134;2023-03-23T09:18:27;16.30;48.20
1812;DHT22;904;47.814;11.134;2023-03-23T09:20:55;16.30;48.60
1812;DHT22;904;47.814;11.134;2023-03-23T09:23:23;16.30;48.90
1812;DHT22;904;47.814;11.134;2023-03-23T09:25:50;16.30;49.10
1812;DHT22;904;47.814;11.134;2023-03-23T09:28:18;16.30;48.80
1812;DHT22;904;47.814;11.134;2023-03-23T09:30:46;16.40;48.90
1812;DHT22;904;47.814;11.134;2023-03-23T09:33:14;16.50;49.40
1812;DHT22;904;47.814;11.134;2023-03-23T09:35:41;16.50;50.00
1812;DHT22;904;47.814;11.134;2023-03-23T09:38:10;16.70;49.50
1812;DHT22;904;47.814;11.134;2023-03-23T09:40:43;16.80;48.30
1812;DHT22;904;47.814;11.134;2023-03-23T09:43:29;17.00;48.50
1812;DHT22;904;47.814;11.134;2023-03-23T09:46:09;17.40;49.40
1812;DHT22;904;47.814;11.134;2023-03-23T09:48:44;17.80;49.80
1812;DHT22;904;47.814;11.134;2023-03-23T09:51:25;18.30;47.80
1812;DHT22;904;47.814;11.134;2023-03-23T09:54:01;19.90;47.30
1812;DHT22;904;47.814;11.134;2023-03-23T09:56:31;22.00;43.20
1812;DHT22;904;47.814;11.134;2023-03-23T09:59:13;22.80;38.80
1812;DHT22;904;47.814;11.134;2023-03-23T10:01:51;22.80;37.20
1812;DHT22;904;47.814;11.134;2023-03-23T10:04:31;22.80;37.30
1812;DHT22;904;47.814;11.134;2023-03-23T10:07:03;22.90;36.10
1812;DHT22;904;47.814;11.134;2023-03-23T10:09:35;22.80;36.00
1812;DHT22;904;47.814;11.134;2023-03-23T10:12:10;22.60;36.10
1812;DHT22;904;47.814;11.134;2023-03-23T10:14:50;22.50;36.40
1812;DHT22;904;47.814;11.134;2023-03-23T10:17:22;22.40;36.80
1812;DHT22;904;47.814;11.134;2023-03-23T10:19:54;22.20;36.90
1812;DHT22;904;47.814;11.134;2023-03-23T10:22:42;22.10;37.60
1812;DHT22;904;47.814;11.134;2023-03-23T10:25:18;21.90;38.60
1812;DHT22;904;47.814;11.134;2023-03-23T10:27:55;21.70;38.80
1812;DHT22;904;47.814;11.134;2023-03-23T10:30:28;21.50;38.80
1812;DHT22;904;47.814;11.134;2023-03-23T10:33:00;21.40;38.10
1812;DHT22;904;47.814;11.134;2023-03-23T10:35:31;21.40;38.10
1812;DHT22;904;47.814;11.134;2023-03-23T10:38:03;21.30;38.10
1812;DHT22;904;47.814;11.134;2023-03-23T10:40:43;21.20;38.40
1812;DHT22;904;47.814;11.134;2023-03-23T10:43:11;21.00;39.40
1812;DHT22;904;47.814;11.134;2023-03-23T10:45:38;20.90;39.60
1812;DHT22;904;47.814;11.134;2023-03-23T10:48:09;20.80;39.40
1812;DHT22;904;47.814;11.134;2023-03-23T10:50:38;20.70;40.00
1812;DHT22;904;47.814;11.134;2023-03-23T10:53:14;20.50;39.50
1812;DHT22;904;47.814;11.134;2023-03-23T10:55:45;20.30;40.10
1812;DHT22;904;47.814;11.134;2023-03-23T10:58:22;20.20;41.10
1812;DHT22;904;47.814;11.134;2023-03-23T11:00:50;20.10;41.00
1812;DHT22;904;47.814;11.134;2023-03-23T11:03:37;20.10;40.90
1812;DHT22;904;47.814;11.134;2023-03-23T11:06:07;20.00;41.00
1812;DHT22;904;47.814;11.134;2023-03-23T11:08:48;20.10;41.00
1812;DHT22;904;47.814;11.134;2023-03-23T11:11:26;20.20;39.90
1812;DHT22;904;47.814;11.134;2023-03-23T11:13:57;20.20;39.50
1812;DHT22;904;47.814;11.134;2023-03-23T11:16:26;20.20;39.70
1812;DHT22;904;47.814;11.134;2023-03-23T11:18:59;20.30;39.20
1812;DHT22;904;47.814;11.134;2023-03-23T11:21:35;20.30;38.90
1812;DHT22;904;47.814;11.134;2023-03-23T11:24:07;20.40;39.10
1812;DHT22;904;47.814;11.134;2023-03-23T11:26:36;20.60;39.60
1812;DHT22;904;47.814;11.134;2023-03-23T11:29:08;20.90;39.60
1812;DHT22;904;47.814;11.134;2023-03-23T11:31:40;21.20;39.00
1812;DHT22;904;47.814;11.134;2023-03-23T11:34:12;21.60;38.30
1812;DHT22;904;47.814;11.134;2023-03-23T11:36:47;21.90;37.60
1812;DHT22;904;47.814;11.134;2023-03-23T11:39:28;22.10;37.40
1812;DHT22;904;47.814;11.134;2023-03-23T11:42:00;22.20;36.80
1812;DHT22;904;47.814;11.134;2023-03-23T11:44:33;22.50;35.70
1812;DHT22;904;47.814;11.134;2023-03-23T11:47:04;22.90;35.70
1812;DHT22;904;47.814;11.134;2023-03-23T11:49:41;23.70;35.20
1812;DHT22;904;47.814;11.134;2023-03-23T11:52:14;24.40;33.80
1812;DHT22;904;47.814;11.134;2023-03-23T11:54:47;24.70;31.10
1812;DHT22;904;47.814;11.134;2023-03-23T11:57:19;24.70;30.90
1812;DHT22;904;47.814;11.134;2023-03-23T11:59:45;24.60;32.30
1812;DHT22;904;47.814;11.134;2023-03-23T12:02:34;24.50;30.20
1812;DHT22;904;47.814;11.134;2023-03-23T12:05:30;24.40;28.20
1812;DHT22;904;47.814;11.134;2023-03-23T12:08:10;24.10;27.90
1812;DHT22;904;47.814;11.134;2023-03-23T12:10:43;23.90;27.10
1812;DHT22;904;47.814;11.134;2023-03-23T12:13:24;23.70;27.80
1812;DHT22;904;47.814;11.134;2023-03-23T12:15:57;23.60;27.50
1812;DHT22;904;47.814;11.134;2023-03-23T12:18:32;23.50;28.20
1812;DHT22;904;47.814;11.134;2023-03-23T12:21:06;23.50;27.90
1812;DHT22;904;47.814;11.134;2023-03-23T12:23:41;23.30;27.40
1812;DHT22;904;47.814;11.134;2023-03-23T12:26:21;22.90;27.30
1812;DHT22;904;47.814;11.134;2023-03-23T12:29:17;22.60;28.20
1812;DHT22;904;47.814;11.134;2023-03-23T12:31:53;22.40;28.40
1812;DHT22;904;47.814;11.134;2023-03-23T12:34:30;22.20;29.40
1812;DHT22;904;47.814;11.134;2023-03-23T12:37:13;22.10;29.10
1812;DHT22;904;47.814;11.134;2023-03-23T12:39:54;22.00;28.90
1812;DHT22;904;47.814;11.134;2023-03-23T12:42:31;22.00;29.50
1812;DHT22;904;47.814;11.134;2023-03-23T12:45:17;22.20;29.70
1812;DHT22;904;47.814;11.134;2023-03-23T12:47:55;22.40;29.40
1812;DHT22;904;47.814;11.134;2023-03-23T12:50:30;22.80;28.80
1812;DHT22;904;47.814;11.134;2023-03-23T12:53:01;23.00;28.40
1812;DHT22;904;47.814;11.134;2023-03-23T12:55:35;22.90;27.70
1812;DHT22;904;47.814;11.134;2023-03-23T12:58:09;22.60;27.20
1812;DHT22;904;47.814;11.134;2023-03-23T13:00:52;22.40;28.10
1812;DHT22;904;47.814;11.134;2023-03-23T13:03:25;22.20;28.70
1812;DHT22;904;47.814;11.134;2023-03-23T13:06:02;22.00;28.80
1812;DHT22;904;47.814;11.134;2023-03-23T13:08:34;21.80;28.90
1812;DHT22;904;47.814;11.134;2023-03-23T13:11:05;21.60;29.00
1812;DHT22;904;47.814;11.134;2023-03-23T13:13:44;21.40;28.80
1812;DHT22;904;47.814;11.134;2023-03-23T13:16:20;21.30;29.60
1812;DHT22;904;47.814;11.134;2023-03-23T13:19:00;21.30;31.00
1812;DHT22;904;47.814;11.134;2023-03-23T13:21:37;21.20;30.00
1812;DHT22;904;47.814;11.134;2023-03-23T13:24:17;21.20;30.00
1812;DHT22;904;47.814;11.134;2023-03-23T13:26:49;21.30;30.00
1812;DHT22;904;47.814;11.134;2023-03-23T13:29:18;21.30;30.00
1812;DHT22;904;47.814;11.134;2023-03-23T13:31:51;21.40;30.00
1812;DHT22;904;47.814;11.134;2023-03-23T13:34:21;21.40;30.10
1812;DHT22;904;47.814;11.134;2023-03-23T13:36:54;21.40;30.60
1812;DHT22;904;47.814;11.134;2023-03-23T13:39:27;21.50;30.30
1812;DHT22;904;47.814;11.134;2023-03-23T13:42:18;21.50;30.60
1812;DHT22;904;47.814;11.134;2023-03-23T13:45:18;21.60;30.00
1812;DHT22;904;47.814;11.134;2023-03-23T13:48:01;21.60;29.90
1812;DHT22;904;47.814;11.134;2023-03-23T13:50:31;21.80;30.00
1812;DHT22;904;47.814;11.134;2023-03-23T13:52:59;21.80;29.80
1812;DHT22;904;47.814;11.134;2023-03-23T13:55:39;21.90;30.00
1812;DHT22;904;47.814;11.134;2023-03-23T13:58:20;22.20;30.30
1812;DHT22;904;47.814;11.134;2023-03-23T14:01:00;22.40;29.90
1812;DHT22;904;47.814;11.134;2023-03-23T14:03:36;22.50;29.80
1812;DHT22;904;47.814;11.134;2023-03-23T14:06:07;22.60;29.60
1812;DHT22;904;47.814;11.134;2023-03-23T14:08:49;22.60;29.30
1812;DHT22;904;47.814;11.134;2023-03-23T14:11:20;22.60;29.70
1812;DHT22;904;47.814;11.134;2023-03-23T14:13:58;22.70;30.00
1812;DHT22;904;47.814;11.134;2023-03-23T14:16:36;22.80;30.50
1812;DHT22;904;47.814;11.134;2023-03-23T14:19:18;22.90;30.00
1812;DHT22;904;47.814;11.134;2023-03-23T14:21:53;22.70;29.80
1812;DHT22;904;47.814;11.134;2023-03-23T14:24:23;22.60;30.00
1812;DHT22;904;47.814;11.134;2023-03-23T14:26:52;22.60;29.80
1812;DHT22;904;47.814;11.134;2023-03-23T14:29:21;22.50;29.80
1812;DHT22;904;47.814;11.134;2023-03-23T14:31:53;22.40;30.30
1812;DHT22;904;47.814;11.134;2023-03-23T14:34:25;22.30;31.10
1812;DHT22;904;47.814;11.134;2023-03-23T14:37:02;22.10;30.50
1812;DHT22;904;47.814;11.134;2023-03-23T14:39:34;22.00;30.90
1812;DHT22;904;47.814;11.134;2023-03-23T14:42:05;21.90;31.00
1812;DHT22;904;47.814;11.134;2023-03-23T14:44:39;21.70;31.00
1812;DHT22;904;47.814;11.134;2023-03-23T14:47:12;21.70;31.60
1812;DHT22;904;47.814;11.134;2023-03-23T14:49:52;21.60;32.00
1812;DHT22;904;47.814;11.134;2023-03-23T14:52:22;21.60;32.30
1812;DHT22;904;47.814;11.134;2023-03-23T14:54:49;21.50;32.60
1812;DHT22;904;47.814;11.134;2023-03-23T14:57:18;21.40;32.90
1812;DHT22;904;47.814;11.134;2023-03-23T14:59:46;21.20;32.10
1812;DHT22;904;47.814;11.134;2023-03-23T15:02:18;21.10;32.30
1812;DHT22;904;47.814;11.134;2023-03-23T15:04:58;20.90;32.20
1812;DHT22;904;47.814;11.134;2023-03-23T15:07:31;20.70;33.00
1812;DHT22;904;47.814;11.134;2023-03-23T15:10:00;20.60;33.00
1812;DHT22;904;47.814;11.134;2023-03-23T15:12:29;20.50;33.10
1812;DHT22;904;47.814;11.134;2023-03-23T15:15:00;20.40;33.20
1812;DHT22;904;47.814;11.134;2023-03-23T15:17:30;20.20;33.00
1812;DHT22;904;47.814;11.134;2023-03-23T15:20:08;20.00;33.30
1812;DHT22;904;47.814;11.134;2023-03-23T15:22:35;19.90;33.30
1812;DHT22;904;47.814;11.134;2023-03-23T15:25:09;19.70;33.30
1812;DHT22;904;47.814;11.134;2023-03-23T15:27:40;19.60;33.80
1812;DHT22;904;47.814;11.134;2023-03-23T15:30:27;19.40;34.60
1812;DHT22;904;47.814;11.134;2023-03-23T15:33:00;19.30;35.40
1812;DHT22;904;47.814;11.134;2023-03-23T15:35:34;19.20;36.30
1812;DHT22;904;47.814;11.134;2023-03-23T15:38:03;19.20;38.30
1812;DHT22;904;47.814;11.134;2023-03-23T15:40:36;19.20;39.50
1812;DHT22;904;47.814;11.134;2023-03-23T15:43:15;19.10;38.90
1812;DHT22;904;47.814;11.134;2023-03-23T15:45:53;19.10;39.30
1812;DHT22;904;47.814;11.134;2023-03-23T15:48:21;19.00;39.50
1812;DHT22;904;47.814;11.134;2023-03-23T15:50:50;18.90;39.20
1812;DHT22;904;47.814;11.134;2023-03-23T15:53:29;18.80;39.50
1812;DHT22;904;47.814;11.134;2023-03-23T15:56:00;18.70;39.70
1812;DHT22;904;47.814;11.134;2023-03-23T15:58:28;18.60;39.90
1812;DHT22;904;47.814;11.134;2023-03-23T16:00:55;18.50;40.60
1812;DHT22;904;47.814;11.134;2023-03-23T16:03:25;18.40;40.10
1812;DHT22;904;47.814;11.134;2023-03-23T16:05:56;18.40;39.70
1812;DHT22;904;47.814;11.134;2023-03-23T16:08:27;18.20;40.10
1812;DHT22;904;47.814;11.134;2023-03-23T16:10:54;18.20;40.40
1812;DHT22;904;47.814;11.134;2023-03-23T16:13:21;18.10;40.70
1812;DHT22;904;47.814;11.134;2023-03-23T16:15:49;18.00;40.70
1812;DHT22;904;47.814;11.134;2023-03-23T16:18:18;18.00;41.10
1812;DHT22;904;47.814;11.134;2023-03-23T16:20:47;17.90;41.40
1812;DHT22;904;47.814;11.134;2023-03-23T16:23:20;17.80;41.00
1812;DHT22;904;47.814;11.134;2023-03-23T16:25:47;17.70;40.90
1812;DHT22;904;47.814;11.134;2023-03-23T16:28:14;17.70;41.10
1812;DHT22;904;47.814;11.134;2023-03-23T16:30:42;17.60;41.40
1812;DHT22;904;47.814;11.134;2023-03-23T16:33:10;17.60;41.90
1812;DHT22;904;47.814;11.134;2023-03-23T16:35:37;17.50;42.30
1812;DHT22;904;47.814;11.134;2023-03-23T16:38:04;17.50;42.80
1812;DHT22;904;47.814;11.134;2023-03-23T16:40:33;17.40;42.90